createdAt,value
2019-04-21T00:00:39.815Z,13.50
2019-04-21T00:03:19.391Z,13.23
2019-04-21T00:06:03.305Z,13.30
2019-04-21T00:13:27.977Z,12.70
2019-04-21T00:15:53.240Z,13.20
2019-04-21T00:18:21.381Z,13.80
2019-04-21T00:20:56.213Z,12.73
2019-04-21T00:23:41.261Z,12.77
2019-04-21T00:26:03.972Z,12.90
2019-04-21T00:28:49.119Z,14.50
2019-04-21T00:31:12.679Z,15.90
2019-04-21T00:33:33.408Z,15.30
2019-04-21T00:36:06.882Z,14.83
2019-04-21T00:39:03.111Z,14.80
2019-04-21T00:41:26.088Z,15.07
2019-04-21T00:43:47.935Z,14.97
2019-04-21T00:46:17.517Z,15.27
2019-04-21T00:48:56.496Z,16.23
2019-04-21T00:54:13.345Z,16.13
2019-04-21T00:56:41.342Z,17.07
2019-04-21T00:59:16.395Z,16.20
2019-04-21T01:01:40.580Z,17.53
2019-04-21T01:04:13.953Z,16.17
2019-04-21T01:06:45.027Z,16.40
2019-04-21T01:09:07.694Z,16.07
2019-04-21T01:11:52.963Z,15.80
2019-04-21T01:14:21.958Z,16.50
2019-04-21T01:16:51.377Z,15.30
2019-04-21T01:19:18.299Z,15.57
2019-04-21T01:21:29.080Z,16.70
2019-04-21T01:24:07.843Z,16.77
2019-04-21T01:26:42.972Z,15.87
2019-04-21T01:29:16.965Z,15.53
2019-04-21T01:31:51.166Z,16.63
2019-04-21T01:34:20.583Z,16.63
2019-04-21T01:36:55.742Z,18.33
2019-04-21T01:39:39.421Z,16.60
2019-04-21T01:42:04.932Z,17.70
2019-04-21T01:44:39.100Z,18.93
2019-04-21T01:46:58.622Z,18.13
2019-04-21T01:49:26.389Z,17.77
2019-04-21T01:55:06.398Z,18.03
2019-04-21T01:57:47.057Z,16.67
2019-04-21T02:00:12.529Z,16.23
2019-04-21T02:02:59.565Z,15.50
2019-04-21T02:05:31.532Z,16.33
2019-04-21T02:07:55.041Z,16.60
2019-04-21T02:10:34.662Z,15.50
2019-04-21T02:12:56.544Z,17.27
2019-04-21T02:15:43.761Z,17.60
2019-04-21T02:18:06.083Z,16.43
2019-04-21T02:20:25.909Z,17.40
2019-04-21T02:23:19.071Z,18.20
2019-04-21T02:25:39.971Z,19.83
2019-04-21T02:28:13.506Z,26.27
2019-04-21T02:38:30.638Z,37.60
2019-04-21T02:40:51.348Z,44.30
2019-04-21T02:43:46.634Z,42.27
2019-04-21T02:51:03.930Z,36.33
2019-04-21T02:58:43.729Z,25.87
2019-04-21T03:01:38.314Z,25.10
2019-04-21T03:03:56.178Z,22.90
2019-04-21T03:06:59.846Z,21.87
2019-04-21T03:09:20.462Z,20.10
2019-04-21T03:11:48.985Z,20.37
2019-04-21T03:14:30.293Z,19.53
2019-04-21T03:16:47.202Z,19.70
2019-04-21T03:19:33.035Z,20.37
2019-04-21T03:21:57.586Z,22.33
2019-04-21T03:24:17.330Z,22.73
2019-04-21T03:29:28.467Z,19.97
2019-04-21T03:35:09.018Z,22.67
2019-04-21T03:37:07.698Z,23.57
2019-04-21T03:39:36.607Z,23.27
2019-04-21T03:42:27.061Z,26.90
2019-04-21T03:55:41.431Z,23.20
2019-04-21T03:58:07.158Z,23.90
2019-04-21T04:00:44.974Z,23.50
2019-04-21T04:03:23.572Z,22.57
2019-04-21T04:05:59.642Z,21.10
2019-04-21T04:08:44.779Z,21.80
2019-04-21T04:11:14.365Z,20.93
2019-04-21T04:13:53.719Z,20.17
2019-04-21T04:16:06.111Z,18.57
2019-04-21T04:18:46.608Z,16.57
2019-04-21T04:21:16.870Z,17.63
2019-04-21T04:23:49.331Z,17.97
2019-04-21T04:31:25.813Z,21.50
2019-04-21T04:33:55.593Z,22.23
2019-04-21T04:36:26.381Z,26.50
2019-04-21T04:39:01.077Z,27.27
2019-04-21T04:41:32.356Z,27.80
2019-04-21T04:44:08.193Z,28.77
2019-04-21T04:46:33.467Z,28.00
2019-04-21T04:49:17.764Z,27.57
2019-04-21T04:51:43.954Z,28.90
2019-04-21T04:53:51.173Z,27.90
2019-04-21T04:59:23.297Z,29.57
2019-04-21T05:01:42.786Z,29.83
2019-04-21T05:04:10.305Z,30.67
2019-04-21T05:06:51.335Z,30.17
2019-04-21T05:09:27.074Z,30.77
2019-04-21T05:19:16.453Z,18.63
2019-04-21T05:21:42.304Z,17.93
2019-04-21T05:24:07.534Z,16.97
2019-04-21T05:26:37.110Z,16.33
2019-04-21T05:29:03.080Z,16.40
2019-04-21T05:31:56.997Z,16.10
2019-04-21T05:34:22.136Z,16.33
2019-04-21T05:37:01.094Z,16.33
2019-04-21T05:39:37.952Z,15.50
2019-04-21T05:42:02.121Z,18.30
2019-04-21T05:44:56.758Z,23.50
2019-04-21T05:47:26.511Z,33.40
2019-04-21T05:49:45.475Z,30.63
2019-04-21T05:52:14.608Z,25.40
2019-04-21T05:54:57.346Z,19.43
2019-04-21T05:57:23.876Z,19.77
2019-04-21T05:59:53.203Z,20.93
2019-04-21T06:02:44.142Z,17.77
2019-04-21T06:07:30.905Z,20.63
2019-04-21T06:09:59.637Z,18.17
2019-04-21T06:12:37.788Z,15.47
2019-04-21T06:15:01.059Z,13.90
2019-04-21T06:17:35.176Z,13.40
2019-04-21T06:20:07.965Z,14.60
2019-04-21T06:22:40.334Z,14.67
2019-04-21T06:25:35.888Z,12.43
2019-04-21T06:27:38.894Z,12.20
2019-04-21T06:30:10.353Z,16.27
2019-04-21T06:35:45.936Z,14.30
2019-04-21T06:38:03.727Z,16.50
2019-04-21T06:40:35.770Z,15.43
2019-04-21T06:43:20.858Z,16.47
2019-04-21T06:45:45.868Z,15.20
2019-04-21T06:48:10.979Z,16.03
2019-04-21T06:50:46.117Z,13.80
2019-04-21T06:53:14.586Z,13.33
2019-04-21T06:55:37.404Z,12.97
2019-04-21T06:58:10.406Z,15.30
2019-04-21T07:00:40.905Z,14.97
2019-04-21T07:03:19.584Z,12.13
2019-04-21T07:05:52.079Z,12.57
2019-04-21T07:08:32.745Z,10.80
2019-04-21T07:10:54.567Z,11.07
2019-04-21T07:13:15.607Z,11.20
2019-04-21T07:15:50.149Z,10.93
2019-04-21T07:18:27.542Z,11.43
2019-04-21T07:20:53.590Z,11.57
2019-04-21T07:23:31.166Z,13.00
2019-04-21T07:25:58.147Z,12.33
2019-04-21T07:28:34.553Z,11.80
2019-04-21T07:31:07.145Z,10.80
2019-04-21T07:33:49.291Z,12.23
2019-04-21T07:36:03.999Z,11.87
2019-04-21T07:38:33.162Z,12.33
2019-04-21T07:40:56.754Z,12.07
2019-04-21T07:43:33.227Z,11.73
2019-04-21T07:45:58.156Z,11.30
2019-04-21T07:48:52.032Z,10.93
2019-04-21T07:51:31.837Z,11.47
2019-04-21T07:54:11.729Z,10.87
2019-04-21T07:56:20.279Z,11.23
2019-04-21T07:59:18.894Z,11.80
2019-04-21T08:01:37.336Z,10.47
2019-04-21T08:04:34.893Z,11.07
2019-04-21T08:06:42.087Z,12.13
2019-04-21T08:09:12.100Z,11.07
2019-04-21T08:11:44.274Z,10.83
2019-04-21T08:14:19.263Z,10.80
2019-04-21T08:16:55.566Z,11.03
2019-04-21T08:19:22.162Z,12.77
2019-04-21T08:24:24.194Z,11.27
2019-04-21T08:26:53.106Z,12.07
2019-04-21T08:29:39.461Z,10.80
2019-04-21T08:32:02.828Z,12.37
2019-04-21T08:34:31.455Z,11.90
2019-04-21T08:36:57.561Z,10.17
2019-04-21T08:39:33.141Z,9.27
2019-04-21T08:41:59.793Z,8.70
2019-04-21T08:44:33.439Z,8.50
2019-04-21T08:47:20.440Z,8.67
2019-04-21T08:49:39.183Z,8.77
2019-04-21T08:52:28.484Z,8.10
2019-04-21T08:54:36.771Z,7.63
2019-04-21T08:57:10.093Z,9.13
2019-04-21T08:59:48.556Z,7.40
2019-04-21T09:02:23.319Z,7.13
2019-04-21T09:04:52.745Z,11.17
2019-04-21T09:07:30.381Z,7.83
2019-04-21T09:09:52.868Z,7.20
2019-04-21T09:12:22.616Z,7.60
2019-04-21T09:14:56.761Z,8.17
2019-04-21T09:17:20.603Z,6.40
2019-04-21T09:20:06.284Z,6.27
2019-04-21T09:22:32.444Z,6.10
2019-04-21T09:24:56.040Z,5.93
2019-04-21T09:27:33.686Z,5.50
2019-04-21T09:29:52.149Z,5.00
2019-04-21T09:32:20.500Z,5.97
2019-04-21T09:34:50.684Z,5.00
2019-04-21T09:37:32.998Z,5.10
2019-04-21T09:39:55.131Z,5.70
2019-04-21T09:42:32.298Z,4.90
2019-04-21T09:44:57.951Z,4.80
2019-04-21T09:47:35.071Z,5.15
2019-04-21T09:49:56.348Z,5.00
2019-04-21T09:52:34.642Z,4.80
2019-04-21T09:55:06.171Z,5.25
2019-04-21T09:57:40.514Z,4.33
2019-04-21T10:00:06.770Z,4.23
2019-04-21T10:02:39.943Z,4.30
2019-04-21T10:05:02.785Z,4.70
2019-04-21T10:07:38.241Z,5.83
2019-04-21T10:10:08.206Z,4.83
2019-04-21T10:12:37.979Z,5.58
2019-04-21T10:15:08.576Z,5.80
2019-04-21T10:17:39.821Z,5.22
2019-04-21T10:20:11.640Z,4.33
2019-04-21T10:22:41.486Z,5.22
2019-04-21T10:25:12.553Z,4.30
2019-04-21T10:27:43.384Z,4.40
2019-04-21T10:30:16.118Z,4.70
2019-04-21T10:32:46.086Z,6.03
2019-04-21T10:35:18.163Z,4.83
2019-04-21T10:37:58.163Z,5.42
2019-04-21T10:40:18.393Z,5.60
2019-04-21T10:42:48.152Z,5.55
2019-04-21T10:45:19.032Z,5.50
2019-04-21T10:47:49.322Z,5.22
2019-04-21T10:50:20.689Z,5.97
2019-04-21T10:52:53.141Z,5.10
2019-04-21T10:55:40.482Z,5.90
2019-04-21T10:58:10.806Z,5.62
2019-04-21T11:00:44.326Z,5.72
2019-04-21T11:03:33.071Z,6.20
2019-04-21T11:06:04.314Z,5.12
2019-04-21T11:08:38.030Z,5.45
2019-04-21T11:11:05.815Z,5.35
2019-04-21T11:13:36.914Z,4.85
2019-04-21T11:16:06.566Z,4.78
2019-04-21T11:18:36.150Z,4.78
2019-04-21T11:21:07.004Z,4.22
2019-04-21T11:23:37.481Z,4.97
2019-04-21T11:26:08.076Z,4.42
2019-04-21T11:28:38.774Z,4.67
2019-04-21T11:31:09.041Z,5.62
2019-04-21T11:33:39.572Z,5.50
2019-04-21T11:36:09.156Z,5.92
2019-04-21T11:38:58.475Z,4.87
2019-04-21T11:41:16.010Z,5.30
2019-04-21T11:43:45.655Z,5.28
2019-04-21T11:46:16.269Z,5.67
2019-04-21T11:48:46.187Z,5.65
2019-04-21T11:51:17.101Z,5.80
2019-04-21T11:53:46.673Z,5.53
2019-04-21T11:56:18.867Z,4.83
2019-04-21T11:58:49.958Z,4.97
2019-04-21T12:01:21.304Z,5.40
2019-04-21T12:03:53.679Z,4.95
2019-04-21T12:06:28.976Z,4.90
2019-04-21T12:08:57.542Z,4.95
2019-04-21T12:11:25.424Z,4.80
2019-04-21T12:13:56.161Z,5.25
2019-04-21T12:16:25.897Z,5.20
2019-04-21T12:18:56.691Z,5.10
2019-04-21T12:21:29.565Z,4.80
2019-04-21T12:23:58.582Z,5.17
2019-04-21T12:26:28.404Z,4.58
2019-04-21T12:28:59.692Z,4.87
2019-04-21T12:31:31.733Z,5.00
2019-04-21T12:34:03.651Z,5.15
2019-04-21T12:36:33.808Z,5.17
2019-04-21T12:39:06.760Z,6.03
2019-04-21T12:41:36.301Z,5.53
2019-04-21T12:44:06.720Z,5.90
2019-04-21T12:46:36.297Z,5.22
2019-04-21T12:49:05.949Z,5.30
2019-04-21T12:51:35.660Z,6.40
2019-04-21T12:54:05.853Z,6.47
2019-04-21T12:56:35.739Z,7.00
2019-04-21T12:59:05.412Z,6.55
2019-04-21T13:01:35.052Z,6.08
2019-04-21T13:04:05.807Z,6.37
2019-04-21T13:06:35.476Z,5.25
2019-04-21T13:09:10.729Z,6.70
2019-04-21T13:11:39.243Z,6.10
2019-04-21T13:14:08.884Z,6.05
2019-04-21T13:16:39.237Z,7.03
2019-04-21T13:19:09.364Z,6.67
2019-04-21T13:21:40.315Z,7.05
2019-04-21T13:24:10.002Z,6.95
2019-04-21T13:26:48.478Z,6.78
2019-04-21T13:29:10.746Z,6.90
2019-04-21T13:31:40.475Z,6.67
2019-04-21T13:34:10.497Z,6.45
2019-04-21T13:36:41.328Z,6.05
2019-04-21T13:42:11.046Z,6.42
2019-04-21T13:44:32.934Z,6.45
2019-04-21T13:47:02.804Z,6.45
2019-04-21T13:49:33.351Z,6.85
2019-04-21T13:52:02.958Z,6.28
2019-04-21T13:54:35.695Z,6.75
2019-04-21T13:57:05.373Z,6.22
2019-04-21T13:59:36.213Z,5.50
2019-04-21T14:02:08.965Z,6.80
2019-04-21T14:04:38.495Z,6.28
2019-04-21T14:07:08.262Z,7.53
2019-04-21T14:09:47.645Z,5.83
2019-04-21T14:12:09.719Z,5.67
2019-04-21T14:14:39.359Z,6.22
2019-04-21T14:17:09.068Z,6.00
2019-04-21T14:19:39.437Z,5.83
2019-04-21T14:22:11.622Z,7.25
2019-04-21T14:24:41.659Z,5.95
2019-04-21T14:27:12.156Z,6.65
2019-04-21T14:29:41.799Z,7.00
2019-04-21T14:32:11.396Z,6.45
2019-04-21T14:34:41.995Z,6.80
2019-04-21T14:37:13.008Z,6.05
2019-04-21T14:39:53.840Z,5.92
2019-04-21T14:42:18.024Z,5.08
2019-04-21T14:44:49.046Z,5.42
2019-04-21T14:47:23.303Z,5.42
2019-04-21T14:50:11.484Z,7.08
2019-04-21T14:52:41.392Z,7.00
2019-04-21T14:55:18.807Z,7.22
2019-04-21T14:57:49.344Z,7.62
2019-04-21T15:00:22.870Z,7.05
2019-04-21T15:02:53.698Z,6.30
2019-04-21T15:05:23.270Z,6.83
2019-04-21T15:07:55.161Z,5.95
2019-04-21T15:10:28.598Z,5.92
2019-04-21T15:12:56.182Z,5.80
2019-04-21T15:15:25.689Z,5.58
2019-04-21T15:17:55.715Z,5.65
2019-04-21T15:20:26.832Z,6.35
2019-04-21T15:22:56.597Z,6.37
2019-04-21T15:25:26.170Z,5.92
2019-04-21T15:27:59.093Z,5.83
2019-04-21T15:30:28.887Z,5.25
2019-04-21T15:32:58.378Z,5.85
2019-04-21T15:35:29.358Z,5.22
2019-04-21T15:38:00.006Z,5.08
2019-04-21T15:40:40.410Z,6.10
2019-04-21T15:43:02.287Z,6.22
2019-04-21T15:45:32.577Z,6.30
2019-04-21T15:48:02.285Z,6.30
2019-04-21T15:50:32.338Z,5.10
2019-04-21T15:53:03.570Z,5.90
2019-04-21T15:55:46.983Z,5.58
2019-04-21T15:58:20.626Z,5.95
2019-04-21T16:00:58.559Z,5.53
2019-04-21T16:03:29.017Z,5.55
2019-04-21T16:05:59.369Z,6.45
2019-04-21T16:08:29.102Z,6.47
2019-04-21T16:11:02.561Z,6.70
2019-04-21T16:13:29.972Z,5.67
2019-04-21T16:15:59.721Z,5.42
2019-04-21T16:18:32.233Z,4.87
2019-04-21T16:21:06.037Z,5.45
2019-04-21T16:23:36.152Z,6.60
2019-04-21T16:26:06.901Z,6.00
2019-04-21T16:28:37.378Z,5.33
2019-04-21T16:31:07.253Z,5.65
2019-04-21T16:33:36.891Z,5.25
2019-04-21T16:36:09.901Z,5.03
2019-04-21T16:38:38.025Z,5.30
2019-04-21T16:41:10.552Z,5.75
2019-04-21T16:43:41.031Z,5.80
2019-04-21T16:46:10.848Z,6.62
2019-04-21T16:48:41.901Z,7.90
2019-04-21T16:51:11.571Z,9.48
2019-04-21T16:53:46.146Z,8.80
2019-04-21T16:56:17.402Z,9.05
2019-04-21T16:58:48.549Z,7.65
2019-04-21T17:01:20.544Z,6.50
2019-04-21T17:03:50.885Z,7.92
2019-04-21T17:06:24.870Z,7.12
2019-04-21T17:08:56.790Z,6.37
2019-04-21T17:11:31.700Z,7.25
2019-04-21T17:14:00.097Z,6.53
2019-04-21T17:19:13.487Z,6.22
2019-04-21T17:21:35.393Z,10.75
2019-04-21T17:24:06.563Z,13.83
2019-04-21T17:26:41.119Z,14.75
2019-04-21T17:29:10.586Z,12.80
2019-04-21T17:31:41.388Z,9.20
2019-04-21T17:34:16.233Z,9.08
2019-04-21T17:36:43.209Z,8.40
2019-04-21T17:39:13.182Z,17.35
2019-04-21T17:42:04.102Z,13.13
2019-04-21T17:44:17.171Z,7.40
2019-04-21T17:46:55.628Z,8.10
2019-04-21T17:49:18.909Z,6.85
2019-04-21T17:52:09.805Z,7.00
2019-04-21T17:54:46.578Z,6.85
2019-04-21T17:57:33.468Z,5.30
2019-04-21T18:00:05.179Z,5.10
2019-04-21T18:02:36.929Z,4.28
2019-04-21T18:05:08.599Z,4.20
2019-04-21T18:07:35.178Z,4.45
2019-04-21T18:10:07.711Z,4.17
2019-04-21T18:12:36.473Z,4.33
2019-04-21T18:15:00.207Z,4.80
2019-04-21T18:17:22.845Z,4.78
2019-04-21T18:19:59.682Z,5.33
2019-04-21T18:22:49.880Z,5.12
2019-04-21T18:25:34.698Z,5.13
2019-04-21T18:27:52.386Z,5.00
2019-04-21T18:30:39.961Z,5.30
2019-04-21T18:33:18.043Z,4.30
2019-04-21T18:35:48.127Z,4.60
2019-04-21T18:38:22.822Z,3.93
2019-04-21T18:40:51.347Z,3.80
2019-04-21T18:46:25.841Z,5.40
2019-04-21T18:48:57.117Z,5.10
2019-04-21T18:51:35.903Z,5.30
2019-04-21T18:54:22.643Z,4.87
2019-04-21T18:56:31.794Z,4.50
2019-04-21T18:59:02.475Z,3.70
2019-04-21T19:01:35.194Z,4.90
2019-04-21T19:04:06.365Z,5.10
2019-04-21T19:06:52.850Z,4.80
2019-04-21T19:09:35.084Z,4.90
2019-04-21T19:12:06.039Z,4.17
2019-04-21T19:14:50.617Z,4.60
2019-04-21T19:17:38.374Z,4.27
2019-04-21T19:20:02.660Z,4.43
2019-04-21T19:22:09.152Z,5.90
2019-04-21T19:24:48.396Z,5.43
2019-04-21T19:27:19.276Z,5.77
2019-04-21T19:29:53.990Z,5.07
2019-04-21T19:34:36.718Z,4.90
2019-04-21T19:37:11.514Z,5.30
2019-04-21T19:39:51.212Z,4.40
2019-04-21T19:42:18.573Z,4.67
2019-04-21T19:44:56.421Z,5.30
2019-04-21T19:47:27.851Z,5.70
2019-04-21T19:50:01.835Z,5.63
2019-04-21T19:52:26.964Z,4.50
2019-04-21T19:54:48.215Z,6.30
2019-04-21T19:57:14.565Z,6.90
2019-04-21T19:59:49.622Z,5.80
2019-04-21T20:02:16.491Z,5.10
2019-04-21T20:04:57.005Z,6.87
2019-04-21T20:07:32.919Z,6.23
2019-04-21T20:10:11.420Z,5.73
2019-04-21T20:12:42.670Z,5.10
2019-04-21T20:15:20.499Z,5.47
2019-04-21T20:17:36.425Z,5.73
2019-04-21T20:19:54.350Z,5.47
2019-04-21T20:22:30.964Z,5.20
2019-04-21T20:25:02.558Z,5.17
2019-04-21T20:27:38.641Z,4.80
2019-04-21T20:30:16.171Z,5.57
2019-04-21T20:32:49.066Z,5.40
2019-04-21T20:35:22.480Z,5.17
2019-04-21T20:37:47.900Z,5.47
2019-04-21T20:40:10.202Z,5.20
2019-04-21T20:42:49.410Z,5.03
2019-04-21T20:45:34.810Z,4.80
2019-04-21T20:47:44.741Z,4.73
2019-04-21T20:50:19.648Z,4.80
2019-04-21T20:52:58.310Z,4.83
2019-04-21T20:55:22.486Z,4.97
2019-04-21T20:57:58.033Z,4.90
2019-04-21T21:00:39.254Z,5.10
2019-04-21T21:03:07.100Z,5.33
2019-04-21T21:05:35.055Z,5.30
2019-04-21T21:08:13.755Z,5.90
2019-04-21T21:10:38.545Z,6.53
2019-04-21T21:13:24.384Z,6.80
2019-04-21T21:15:52.370Z,6.93
2019-04-21T21:18:35.566Z,8.03
2019-04-21T21:20:49.861Z,9.53
2019-04-21T21:23:11.577Z,9.17
2019-04-21T21:25:52.989Z,9.40
2019-04-21T21:28:22.715Z,11.07
2019-04-21T21:30:46.546Z,9.43
2019-04-21T21:33:46.861Z,10.20
2019-04-21T21:35:52.529Z,11.40
2019-04-21T21:38:28.186Z,10.40
2019-04-21T21:40:54.678Z,10.70
2019-04-21T21:43:17.573Z,10.10
2019-04-21T21:45:50.040Z,9.37
2019-04-21T21:48:38.256Z,9.33
2019-04-21T21:50:57.786Z,9.47
2019-04-21T21:53:21.442Z,9.70
2019-04-21T21:55:48.885Z,9.20
2019-04-21T21:58:25.118Z,9.30
2019-04-21T22:00:56.668Z,9.87
2019-04-21T22:03:33.011Z,10.30
2019-04-21T22:06:01.887Z,10.53
2019-04-21T22:08:28.299Z,10.97
2019-04-21T22:10:59.082Z,10.70
2019-04-21T22:13:37.631Z,10.90
2019-04-21T22:16:06.469Z,11.93
2019-04-21T22:18:45.209Z,11.03
2019-04-21T22:21:14.213Z,12.30
2019-04-21T22:23:43.862Z,11.57
2019-04-21T22:26:05.398Z,12.17
2019-04-21T22:28:35.963Z,12.43
2019-04-21T22:31:15.083Z,12.43
2019-04-21T22:33:44.931Z,11.87
2019-04-21T22:36:23.362Z,11.47
2019-04-21T22:38:52.230Z,11.03
2019-04-21T22:41:23.278Z,10.67
2019-04-21T22:43:47.747Z,9.70
2019-04-21T22:46:15.481Z,10.30
2019-04-21T22:48:52.078Z,10.97
2019-04-21T22:51:23.977Z,10.20
2019-04-21T22:53:51.865Z,10.67
2019-04-21T22:56:25.559Z,10.53
2019-04-21T22:58:51.343Z,9.97
2019-04-21T23:01:30.166Z,10.70
2019-04-21T23:03:56.879Z,9.53
2019-04-21T23:06:27.573Z,9.87
2019-04-21T23:08:55.230Z,10.17
2019-04-21T23:11:29.248Z,9.70
2019-04-21T23:14:03.991Z,9.00
2019-04-21T23:16:35.220Z,9.63
2019-04-21T23:19:16.997Z,9.30
2019-04-21T23:21:50.083Z,10.10
2019-04-21T23:24:26.499Z,9.27
2019-04-21T23:26:47.273Z,9.33
2019-04-21T23:29:25.826Z,9.47
2019-04-21T23:31:57.963Z,9.53
2019-04-21T23:34:06.392Z,9.93
2019-04-21T23:36:41.867Z,9.27
2019-04-21T23:39:15.868Z,10.07
2019-04-21T23:41:44.465Z,10.07
2019-04-21T23:44:13.649Z,10.00
2019-04-21T23:46:42.618Z,9.70
2019-04-21T23:49:28.315Z,10.13
2019-04-21T23:51:50.898Z,10.97
2019-04-21T23:54:15.590Z,10.33
2019-04-21T23:56:47.622Z,10.27
2019-04-21T23:59:17.980Z,10.27
